createdAt,value
2019-06-07T00:00:38.260Z,135.00
2019-06-07T00:01:26.612Z,135.00
2019-06-07T00:02:26.537Z,135.00
2019-06-07T00:03:30.098Z,135.00
2019-06-07T00:04:26.566Z,135.00
2019-06-07T00:05:26.531Z,135.00
2019-06-07T00:06:26.549Z,135.00
2019-06-07T00:07:26.548Z,135.00
2019-06-07T00:08:28.867Z,135.00
2019-06-07T00:09:26.544Z,92.78
2019-06-07T00:10:36.080Z,90.00
2019-06-07T00:11:26.585Z,90.00
2019-06-07T00:12:26.599Z,90.00
2019-06-07T00:13:26.553Z,90.00
2019-06-07T00:14:26.547Z,90.00
2019-06-07T00:15:29.049Z,90.00
2019-06-07T00:16:26.605Z,90.00
2019-06-07T00:17:26.554Z,90.00
2019-06-07T00:18:26.567Z,90.00
2019-06-07T00:19:26.535Z,90.00
2019-06-07T00:20:26.627Z,90.00
2019-06-07T00:22:12.747Z,90.00
2019-06-07T00:22:33.192Z,90.00
2019-06-07T00:23:26.593Z,90.00
2019-06-07T00:24:26.604Z,90.00
2019-06-07T00:25:26.556Z,90.00
2019-06-07T00:26:26.596Z,90.00
2019-06-07T00:27:26.570Z,90.00
2019-06-07T00:28:26.599Z,90.00
2019-06-07T00:29:26.615Z,90.00
2019-06-07T00:30:41.073Z,90.00
2019-06-07T00:31:26.613Z,97.10
2019-06-07T00:32:26.581Z,111.63
2019-06-07T00:33:26.616Z,135.00
2019-06-07T00:34:26.547Z,137.19
2019-06-07T00:35:26.527Z,163.80
2019-06-07T00:36:26.565Z,114.42
2019-06-07T00:37:26.640Z,127.16
2019-06-07T00:38:26.622Z,131.99
2019-06-07T00:39:26.581Z,124.65
2019-06-07T00:40:31.776Z,135.00
2019-06-07T00:41:26.595Z,90.00
2019-06-07T00:42:26.560Z,132.32
2019-06-07T00:43:28.586Z,136.99
2019-06-07T00:44:26.646Z,180.00
2019-06-07T00:45:26.633Z,180.00
2019-06-07T00:46:26.614Z,176.75
2019-06-07T00:47:26.679Z,135.00
2019-06-07T00:48:32.394Z,121.65
2019-06-07T00:49:39.869Z,90.00
2019-06-07T00:50:26.633Z,90.00
2019-06-07T00:51:26.698Z,90.00
2019-06-07T00:53:13.205Z,51.08
2019-06-07T00:53:31.797Z,4.36
2019-06-07T00:54:26.635Z,90.00
2019-06-07T00:55:27.714Z,98.97
2019-06-07T00:56:26.702Z,131.61
2019-06-07T00:57:26.698Z,123.54
2019-06-07T00:58:27.898Z,90.00
2019-06-07T00:59:29.587Z,90.00
2019-06-07T01:00:26.646Z,90.00
2019-06-07T01:01:26.750Z,90.00
2019-06-07T01:02:31.309Z,90.00
2019-06-07T01:03:26.727Z,106.50
2019-06-07T01:04:27.214Z,130.26
2019-06-07T01:05:30.981Z,45.00
2019-06-07T01:06:26.693Z,45.00
2019-06-07T01:07:26.661Z,45.00
2019-06-07T01:08:29.871Z,32.91
2019-06-07T01:09:26.654Z,315.00
2019-06-07T01:10:51.663Z,316.65
2019-06-07T01:11:26.695Z,90.00
2019-06-07T01:12:27.012Z,90.00
2019-06-07T01:13:27.109Z,90.00
2019-06-07T01:14:28.381Z,90.00
2019-06-07T01:15:29.153Z,90.00
2019-06-07T01:16:26.689Z,90.00
2019-06-07T01:17:36.291Z,90.00
2019-06-07T01:18:37.755Z,90.00
2019-06-07T01:19:27.761Z,90.00
2019-06-07T01:20:26.865Z,90.00
2019-06-07T01:21:29.326Z,90.00
2019-06-07T01:22:29.001Z,90.00
2019-06-07T01:24:04.742Z,90.00
2019-06-07T01:24:28.055Z,90.00
2019-06-07T01:25:28.794Z,90.00
2019-06-07T01:26:29.454Z,90.00
2019-06-07T01:27:26.668Z,90.00
2019-06-07T01:28:27.182Z,90.00
2019-06-07T01:29:29.426Z,90.00
2019-06-07T01:30:26.898Z,90.00
2019-06-07T01:31:30.520Z,90.00
2019-06-07T01:32:27.163Z,90.00
2019-06-07T01:33:38.816Z,90.00
2019-06-07T01:34:26.989Z,90.00
2019-06-07T01:35:26.759Z,90.00
2019-06-07T01:36:29.560Z,90.00
2019-06-07T01:37:27.980Z,90.00
2019-06-07T01:38:26.864Z,90.00
2019-06-07T01:39:29.794Z,90.00
2019-06-07T01:40:29.696Z,90.00
2019-06-07T01:41:28.446Z,90.00
2019-06-07T01:42:29.441Z,90.00
2019-06-07T01:43:28.670Z,90.00
2019-06-07T01:44:28.107Z,90.00
2019-06-07T01:45:30.622Z,90.00
2019-06-07T01:46:26.920Z,90.00
2019-06-07T01:47:28.750Z,90.00
2019-06-07T01:48:44.575Z,90.00
2019-06-07T01:49:28.156Z,90.00
2019-06-07T01:50:27.273Z,123.18
2019-06-07T01:51:27.907Z,135.00
2019-06-07T01:52:26.821Z,135.00
2019-06-07T01:53:29.103Z,258.16
2019-06-07T01:54:52.141Z,270.00
2019-06-07T01:55:29.839Z,273.43
2019-06-07T01:56:29.519Z,90.00
2019-06-07T01:57:38.025Z,123.98
2019-06-07T01:58:29.059Z,136.55
2019-06-07T01:59:28.564Z,315.00
2019-06-07T02:00:31.479Z,283.03
2019-06-07T02:01:34.529Z,90.96
2019-06-07T02:02:30.040Z,111.56
2019-06-07T02:03:32.265Z,135.20
2019-06-07T02:04:29.376Z,276.73
2019-06-07T02:05:30.529Z,315.00
2019-06-07T02:06:27.929Z,315.00
2019-06-07T02:07:30.366Z,315.00
2019-06-07T02:08:33.568Z,315.00
2019-06-07T02:09:29.880Z,340.46
2019-06-07T02:10:30.302Z,135.00
2019-06-07T02:11:28.770Z,135.00
2019-06-07T02:12:37.599Z,135.00
2019-06-07T02:13:28.892Z,135.00
2019-06-07T02:14:29.891Z,135.00
2019-06-07T02:15:30.702Z,135.00
2019-06-07T02:16:30.408Z,135.00
2019-06-07T02:17:29.744Z,135.00
2019-06-07T02:18:29.151Z,135.00
2019-06-07T02:19:27.548Z,135.00
2019-06-07T02:20:31.449Z,135.00
2019-06-07T02:21:30.448Z,136.25
2019-06-07T02:22:29.456Z,315.00
2019-06-07T02:23:29.199Z,315.00
2019-06-07T02:24:28.861Z,315.00
2019-06-07T02:25:39.308Z,315.00
2019-06-07T02:26:29.700Z,315.00
2019-06-07T02:27:27.488Z,333.60
2019-06-07T02:28:34.650Z,90.00
2019-06-07T02:29:30.279Z,90.00
2019-06-07T02:30:40.473Z,90.00
2019-06-07T02:31:28.699Z,90.00
2019-06-07T02:32:29.730Z,90.00
2019-06-07T02:33:28.947Z,90.00
2019-06-07T02:34:28.084Z,90.00
2019-06-07T02:35:34.744Z,90.00
2019-06-07T02:36:30.501Z,90.00
2019-06-07T02:37:27.744Z,90.00
2019-06-07T02:38:29.687Z,90.00
2019-06-07T02:39:28.895Z,90.00
2019-06-07T02:40:31.971Z,90.00
2019-06-07T02:41:33.330Z,90.00
2019-06-07T02:42:29.491Z,90.00
2019-06-07T02:43:27.551Z,105.64
2019-06-07T02:44:30.270Z,135.00
2019-06-07T02:45:29.892Z,135.00
2019-06-07T02:46:35.302Z,135.00
2019-06-07T02:47:28.686Z,135.00
2019-06-07T02:48:27.925Z,135.00
2019-06-07T02:49:28.965Z,135.00
2019-06-07T02:50:29.211Z,135.00
2019-06-07T02:51:28.081Z,135.00
2019-06-07T02:52:29.312Z,135.00
2019-06-07T02:53:27.223Z,135.00
2019-06-07T02:54:29.433Z,135.00
2019-06-07T02:55:29.596Z,135.00
2019-06-07T02:56:39.192Z,114.71
2019-06-07T02:57:28.538Z,90.00
2019-06-07T02:58:31.155Z,90.00
2019-06-07T02:59:47.225Z,90.00
2019-06-07T03:00:51.423Z,90.00
2019-06-07T03:01:28.543Z,90.00
2019-06-07T03:02:31.032Z,103.46
2019-06-07T03:03:28.897Z,135.00
2019-06-07T03:04:28.916Z,122.93
2019-06-07T03:05:27.387Z,90.00
2019-06-07T03:06:29.773Z,90.00
2019-06-07T03:07:28.311Z,90.00
2019-06-07T03:08:28.251Z,117.96
2019-06-07T03:09:28.845Z,135.00
2019-06-07T03:10:28.570Z,135.00
2019-06-07T03:11:28.103Z,135.00
2019-06-07T03:12:28.966Z,135.00
2019-06-07T03:13:28.923Z,135.00
2019-06-07T03:14:26.791Z,135.00
2019-06-07T03:15:37.430Z,135.00
2019-06-07T03:16:26.776Z,135.00
2019-06-07T03:17:27.166Z,135.00
2019-06-07T03:18:28.649Z,135.00
2019-06-07T03:19:26.854Z,135.00
2019-06-07T03:20:27.614Z,135.00
2019-06-07T03:21:28.159Z,135.00
2019-06-07T03:22:26.809Z,135.00
2019-06-07T03:23:28.704Z,135.00
2019-06-07T03:24:31.015Z,120.97
2019-06-07T03:25:28.120Z,90.00
2019-06-07T03:26:27.620Z,90.00
2019-06-07T03:27:38.891Z,90.00
2019-06-07T03:28:27.630Z,90.00
2019-06-07T03:29:28.840Z,90.00
2019-06-07T03:30:39.844Z,90.00
2019-06-07T03:31:28.490Z,106.07
2019-06-07T03:32:31.996Z,135.00
2019-06-07T03:33:26.907Z,135.00
2019-06-07T03:34:32.173Z,135.00
2019-06-07T03:35:28.473Z,92.73
2019-06-07T03:36:27.547Z,90.00
2019-06-07T03:37:28.070Z,90.00
2019-06-07T03:38:27.729Z,90.00
2019-06-07T03:39:28.417Z,90.00
2019-06-07T03:40:26.823Z,90.00
2019-06-07T03:41:29.300Z,90.00
2019-06-07T03:42:26.803Z,90.00
2019-06-07T03:43:27.405Z,90.00
2019-06-07T03:44:28.659Z,90.00
2019-06-07T03:45:28.610Z,90.00
2019-06-07T03:46:27.320Z,90.00
2019-06-07T03:47:30.602Z,90.00
2019-06-07T03:48:28.437Z,90.00
2019-06-07T03:49:27.922Z,90.00
2019-06-07T03:50:30.584Z,104.11
2019-06-07T03:51:27.074Z,135.00
2019-06-07T03:52:27.453Z,125.89
2019-06-07T03:53:30.487Z,96.73
2019-06-07T03:54:27.234Z,135.00
2019-06-07T03:55:27.819Z,135.00
2019-06-07T03:56:28.319Z,98.63
2019-06-07T03:57:28.656Z,90.00
2019-06-07T03:58:32.580Z,90.00
2019-06-07T03:59:28.410Z,90.00
2019-06-07T04:00:29.603Z,90.00
2019-06-07T04:01:28.601Z,67.94
2019-06-07T04:02:27.850Z,45.00
2019-06-07T04:03:36.086Z,45.00
2019-06-07T04:04:27.357Z,97.10
2019-06-07T04:05:28.740Z,135.00
2019-06-07T04:06:28.991Z,135.00
2019-06-07T04:07:28.950Z,135.00
2019-06-07T04:08:28.187Z,128.75
2019-06-07T04:09:28.588Z,126.64
2019-06-07T04:10:45.762Z,115.23
2019-06-07T04:11:27.814Z,90.00
2019-06-07T04:12:28.394Z,90.00
2019-06-07T04:13:28.916Z,90.00
2019-06-07T04:14:29.334Z,90.00
2019-06-07T04:15:27.804Z,90.00
2019-06-07T04:16:28.818Z,90.00
2019-06-07T04:17:27.408Z,83.08
2019-06-07T04:18:27.930Z,295.12
2019-06-07T04:19:28.735Z,283.13
2019-06-07T04:20:29.183Z,10.46
2019-06-07T04:21:29.508Z,90.00
2019-06-07T04:22:28.751Z,130.80
2019-06-07T04:23:29.966Z,135.00
2019-06-07T04:24:26.807Z,135.00
2019-06-07T04:25:26.841Z,135.00
2019-06-07T04:26:30.910Z,135.00
2019-06-07T04:27:26.849Z,135.00
2019-06-07T04:29:15.621Z,135.00
2019-06-07T04:29:47.329Z,135.00
2019-06-07T04:30:26.860Z,135.00
2019-06-07T04:31:26.827Z,135.00
2019-06-07T04:32:26.839Z,135.00
2019-06-07T04:33:26.852Z,135.00
2019-06-07T04:34:26.845Z,135.00
2019-06-07T04:35:26.842Z,135.00
2019-06-07T04:36:41.723Z,135.00
2019-06-07T04:37:26.836Z,130.23
2019-06-07T04:38:26.843Z,45.00
2019-06-07T04:39:26.856Z,45.00
2019-06-07T04:40:27.836Z,45.00
2019-06-07T04:41:26.853Z,45.00
2019-06-07T04:42:26.915Z,45.00
2019-06-07T04:43:26.891Z,45.00
2019-06-07T04:44:26.849Z,45.00
2019-06-07T04:45:33.948Z,45.00
2019-06-07T04:46:26.905Z,45.00
2019-06-07T04:47:26.834Z,45.00
2019-06-07T04:48:26.845Z,45.00
2019-06-07T04:49:26.952Z,45.00
2019-06-07T04:50:26.913Z,45.00
2019-06-07T04:51:26.893Z,45.00
2019-06-07T04:52:26.905Z,45.00
2019-06-07T04:53:26.856Z,45.00
2019-06-07T04:54:26.846Z,43.66
2019-06-07T04:55:26.887Z,0.00
2019-06-07T04:56:26.917Z,0.00
2019-06-07T04:57:26.860Z,4.26
2019-06-07T04:58:26.862Z,74.20
2019-06-07T05:00:04.177Z,273.47
2019-06-07T05:00:46.934Z,284.39
2019-06-07T05:01:29.137Z,291.49
2019-06-07T05:02:26.944Z,342.39
2019-06-07T05:03:26.926Z,274.14
2019-06-07T05:04:26.853Z,290.15
2019-06-07T05:05:26.874Z,282.33
2019-06-07T05:06:26.889Z,309.05
2019-06-07T05:07:26.943Z,302.41
2019-06-07T05:08:28.413Z,274.71
2019-06-07T05:09:26.858Z,270.00
2019-06-07T05:10:26.866Z,279.99
2019-06-07T05:11:26.872Z,270.00
2019-06-07T05:12:26.874Z,270.00
2019-06-07T05:13:26.930Z,293.06
2019-06-07T05:14:26.881Z,270.00
2019-06-07T05:15:26.878Z,282.96
2019-06-07T05:16:26.938Z,286.54
2019-06-07T05:17:26.894Z,286.55
2019-06-07T05:18:26.881Z,298.21
2019-06-07T05:19:26.943Z,275.01
2019-06-07T05:20:26.917Z,288.85
2019-06-07T05:21:48.213Z,336.08
2019-06-07T05:22:26.939Z,313.34
2019-06-07T05:24:02.470Z,315.00
2019-06-07T05:24:26.901Z,330.94
2019-06-07T05:25:26.909Z,333.47
2019-06-07T05:26:26.956Z,0.00
2019-06-07T05:27:26.921Z,355.80
2019-06-07T05:28:26.882Z,310.24
2019-06-07T05:29:26.892Z,315.00
2019-06-07T05:30:58.497Z,311.01
2019-06-07T05:31:26.955Z,272.28
2019-06-07T05:32:26.890Z,90.00
2019-06-07T05:33:26.887Z,95.98
2019-06-07T05:34:26.900Z,292.84
2019-06-07T05:35:26.980Z,286.60
2019-06-07T05:36:27.016Z,288.18
2019-06-07T05:37:26.929Z,12.22
2019-06-07T05:38:26.888Z,45.00
2019-06-07T05:39:26.876Z,45.00
2019-06-07T05:40:26.884Z,45.00
2019-06-07T05:41:26.921Z,45.00
2019-06-07T05:42:26.872Z,45.00
2019-06-07T05:43:26.975Z,45.00
2019-06-07T05:44:27.127Z,270.40
2019-06-07T05:45:26.912Z,187.12
2019-06-07T05:46:26.990Z,273.84
2019-06-07T05:47:26.930Z,270.00
2019-06-07T05:48:27.012Z,270.00
2019-06-07T05:49:26.894Z,270.00
2019-06-07T05:50:38.508Z,270.00
2019-06-07T05:51:26.944Z,270.00
2019-06-07T05:52:26.977Z,270.00
2019-06-07T05:53:26.915Z,359.94
2019-06-07T05:54:26.903Z,45.00
2019-06-07T05:55:26.934Z,45.00
2019-06-07T05:56:26.958Z,45.00
2019-06-07T05:57:26.962Z,47.36
2019-06-07T05:58:27.186Z,90.00
2019-06-07T05:59:26.924Z,90.00
2019-06-07T06:00:26.910Z,90.00
2019-06-07T06:01:42.847Z,90.00
2019-06-07T06:02:26.930Z,90.00
2019-06-07T06:03:27.175Z,90.00
2019-06-07T06:04:26.939Z,90.00
2019-06-07T06:05:34.558Z,90.00
2019-06-07T06:06:26.944Z,90.00
2019-06-07T06:07:26.937Z,90.00
2019-06-07T06:08:26.952Z,90.00
2019-06-07T06:09:26.948Z,90.00
2019-06-07T06:10:27.004Z,90.62
2019-06-07T06:11:43.434Z,147.01
2019-06-07T06:12:35.335Z,180.00
2019-06-07T06:13:26.966Z,180.00
2019-06-07T06:14:26.960Z,124.36
2019-06-07T06:15:41.593Z,90.00
2019-06-07T06:16:26.984Z,90.00
2019-06-07T06:17:26.929Z,90.00
2019-06-07T06:18:26.940Z,90.00
2019-06-07T06:19:27.478Z,90.00
2019-06-07T06:20:32.863Z,90.00
2019-06-07T06:21:26.928Z,90.00
2019-06-07T06:22:27.011Z,90.00
2019-06-07T06:23:27.137Z,90.00
2019-06-07T06:24:26.994Z,90.00
2019-06-07T06:25:32.962Z,90.00
2019-06-07T06:26:26.952Z,90.00
2019-06-07T06:28:27.340Z,90.00
2019-06-07T06:29:26.940Z,90.00
2019-06-07T06:30:26.983Z,90.00
2019-06-07T06:31:26.991Z,90.00
2019-06-07T06:32:46.477Z,90.00
2019-06-07T06:33:34.218Z,90.00
2019-06-07T06:34:27.010Z,90.00
2019-06-07T06:35:26.975Z,90.00
2019-06-07T06:36:26.937Z,90.00
2019-06-07T06:37:27.005Z,90.00
2019-06-07T06:38:26.958Z,90.00
2019-06-07T06:39:26.945Z,90.00
2019-06-07T06:40:27.060Z,90.00
2019-06-07T06:41:27.004Z,90.00
2019-06-07T06:42:26.957Z,90.00
2019-06-07T06:43:27.021Z,90.00
2019-06-07T06:44:26.981Z,90.00
2019-06-07T06:45:26.994Z,90.00
2019-06-07T06:46:38.869Z,90.00
2019-06-07T06:47:26.993Z,90.00
2019-06-07T06:48:26.985Z,90.00
2019-06-07T06:49:26.980Z,90.00
2019-06-07T06:50:27.013Z,90.00
2019-06-07T06:51:26.974Z,90.00
2019-06-07T06:52:27.029Z,90.00
2019-06-07T06:53:27.022Z,90.00
2019-06-07T06:54:40.254Z,90.00
2019-06-07T06:55:27.032Z,90.00
2019-06-07T06:56:27.036Z,90.00
2019-06-07T06:57:27.867Z,90.00
2019-06-07T06:58:27.024Z,90.00
2019-06-07T06:59:38.568Z,90.00
2019-06-07T07:00:43.153Z,90.00
2019-06-07T07:01:27.017Z,90.00
2019-06-07T07:02:27.024Z,90.00
2019-06-07T07:04:01.235Z,90.00
2019-06-07T07:04:27.127Z,90.00
2019-06-07T07:05:26.996Z,90.00
2019-06-07T07:06:27.226Z,90.00
2019-06-07T07:07:27.297Z,126.21
2019-06-07T07:08:26.984Z,135.00
2019-06-07T07:09:27.037Z,99.83
2019-06-07T07:10:27.036Z,75.37
2019-06-07T07:11:26.997Z,270.47
2019-06-07T07:12:27.011Z,2.76
2019-06-07T07:13:27.075Z,135.00
2019-06-07T07:14:26.985Z,131.27
2019-06-07T07:15:27.005Z,135.00
2019-06-07T07:16:27.010Z,105.86
2019-06-07T07:17:47.523Z,90.00
2019-06-07T07:18:27.009Z,90.00
2019-06-07T07:32:26.051Z,180.00
2019-06-07T07:33:26.014Z,138.00
2019-06-07T07:34:34.372Z,135.00
2019-06-07T07:35:26.003Z,135.00
2019-06-07T07:38:26.016Z,135.00
2019-06-07T07:39:26.073Z,135.00
2019-06-07T07:40:56.939Z,135.00
2019-06-07T07:41:26.007Z,135.00
2019-06-07T07:44:26.042Z,135.00
2019-06-07T07:45:26.012Z,135.00
2019-06-07T07:46:29.767Z,135.00
2019-06-07T07:47:26.050Z,135.00
2019-06-07T07:50:26.073Z,135.00
2019-06-07T07:51:26.020Z,135.00
2019-06-07T07:52:26.017Z,135.00
2019-06-07T07:53:45.019Z,135.00
2019-06-07T07:56:26.059Z,135.00
2019-06-07T07:57:26.034Z,135.00
2019-06-07T07:58:26.029Z,135.00
2019-06-07T07:59:41.102Z,135.00
2019-06-07T08:02:26.046Z,90.00
2019-06-07T08:03:26.047Z,100.43
2019-06-07T08:05:12.007Z,180.00
2019-06-07T08:05:40.004Z,180.00
2019-06-07T08:08:26.067Z,315.00
2019-06-07T08:09:26.093Z,315.00
2019-06-07T08:10:26.121Z,313.52
2019-06-07T08:11:26.044Z,315.00
2019-06-07T08:14:26.056Z,225.00
2019-06-07T08:15:26.072Z,225.00
2019-06-07T08:16:26.051Z,225.00
2019-06-07T08:17:26.052Z,225.00
2019-06-07T08:20:26.063Z,135.00
2019-06-07T08:21:26.984Z,135.00
2019-06-07T08:22:26.047Z,135.00
2019-06-07T08:23:26.070Z,135.00
2019-06-07T08:26:26.058Z,135.00
2019-06-07T08:27:26.932Z,135.13
2019-06-07T08:28:26.051Z,315.00
2019-06-07T08:29:26.093Z,315.00
2019-06-07T08:32:26.054Z,225.42
2019-06-07T08:33:26.934Z,270.00
2019-06-07T08:34:26.064Z,271.25
2019-06-07T08:38:33.834Z,270.00
2019-06-07T08:39:26.134Z,282.32
2019-06-07T08:40:26.074Z,276.66
2019-06-07T08:41:26.123Z,270.00
2019-06-07T08:44:26.093Z,309.21
2019-06-07T08:45:26.087Z,315.00
2019-06-07T08:46:26.071Z,269.57
2019-06-07T08:47:26.110Z,225.00
2019-06-07T08:50:26.130Z,90.00
2019-06-07T08:51:26.096Z,282.15
2019-06-07T08:52:26.098Z,312.43
2019-06-07T08:53:26.091Z,45.00
2019-06-07T08:56:26.147Z,70.11
2019-06-07T08:57:26.094Z,90.00
2019-06-07T08:58:26.092Z,90.00
2019-06-07T08:59:26.130Z,73.47
2019-06-07T09:02:26.140Z,315.00
2019-06-07T09:03:26.095Z,313.76
2019-06-07T09:04:26.121Z,297.32
2019-06-07T09:05:26.104Z,259.05
2019-06-07T09:08:29.755Z,181.67
2019-06-07T09:09:26.099Z,6.82
2019-06-07T09:10:26.114Z,85.00
2019-06-07T09:11:26.272Z,12.87
2019-06-07T09:14:26.136Z,321.59
2019-06-07T09:15:26.115Z,345.62
2019-06-07T09:16:26.110Z,180.00
2019-06-07T09:17:26.113Z,234.75
2019-06-07T09:20:35.875Z,292.55
2019-06-07T09:21:26.165Z,300.92
2019-06-07T09:22:26.151Z,209.23
2019-06-07T09:23:26.136Z,90.00
2019-06-07T09:26:26.165Z,92.88
2019-06-07T09:27:26.126Z,100.77
2019-06-07T09:28:26.121Z,97.39
2019-06-07T09:29:26.150Z,109.76
2019-06-07T09:32:26.103Z,90.00
2019-06-07T09:33:26.131Z,56.23
2019-06-07T09:34:26.245Z,45.00
2019-06-07T09:35:26.156Z,359.76
2019-06-07T09:38:26.799Z,261.66
2019-06-07T09:39:26.125Z,115.68
2019-06-07T09:40:27.894Z,90.00
2019-06-07T09:41:46.151Z,90.00
2019-06-07T09:44:26.684Z,93.72
2019-06-07T09:45:26.197Z,94.69
2019-06-07T09:46:26.151Z,92.18
2019-06-07T09:47:32.193Z,90.00
2019-06-07T09:50:26.127Z,90.00
2019-06-07T09:51:26.190Z,90.00
2019-06-07T09:52:26.188Z,102.43
2019-06-07T09:53:26.153Z,135.00
2019-06-07T09:55:03.340Z,120.08
2019-06-07T09:56:26.161Z,180.00
2019-06-07T09:57:26.155Z,129.03
2019-06-07T09:58:51.784Z,90.00
2019-06-07T09:59:26.178Z,118.98
2019-06-07T10:02:26.187Z,107.08
2019-06-07T10:03:26.219Z,44.60
2019-06-07T10:04:31.035Z,124.47
2019-06-07T10:05:26.155Z,132.78
2019-06-07T10:09:42.628Z,109.76
2019-06-07T10:10:08.630Z,122.98
2019-06-07T10:11:26.176Z,155.62
2019-06-07T10:14:26.188Z,92.17
2019-06-07T10:15:26.176Z,90.00
2019-06-07T10:16:26.168Z,65.50
2019-06-07T10:17:26.223Z,52.14
2019-06-07T10:20:26.214Z,315.00
2019-06-07T10:21:26.199Z,315.00
2019-06-07T10:22:26.178Z,317.64
2019-06-07T10:23:26.198Z,128.15
2019-06-07T10:26:26.189Z,159.63
2019-06-07T10:27:26.256Z,150.48
2019-06-07T10:28:26.182Z,45.00
2019-06-07T10:29:26.205Z,225.00
2019-06-07T10:32:26.181Z,355.82
2019-06-07T10:33:26.205Z,44.44
2019-06-07T10:34:26.181Z,149.65
2019-06-07T10:35:26.238Z,263.50
2019-06-07T10:38:26.244Z,249.61
2019-06-07T10:39:26.214Z,268.83
2019-06-07T10:40:26.204Z,276.86
2019-06-07T10:41:26.182Z,46.04
2019-06-07T10:44:26.205Z,205.50
2019-06-07T10:45:26.204Z,218.00
2019-06-07T10:46:26.214Z,198.88
2019-06-07T10:47:26.297Z,95.54
2019-06-07T10:50:26.267Z,98.41
2019-06-07T10:51:26.249Z,108.01
2019-06-07T10:52:26.215Z,91.58
2019-06-07T10:53:26.272Z,5.55
2019-06-07T10:56:26.256Z,225.00
2019-06-07T10:57:26.246Z,80.76
2019-06-07T10:58:26.223Z,98.23
2019-06-07T10:59:26.266Z,105.11
2019-06-07T11:02:26.244Z,90.00
2019-06-07T11:03:26.245Z,91.17
2019-06-07T11:04:26.221Z,82.88
2019-06-07T11:05:26.209Z,103.00
2019-06-07T11:08:26.267Z,156.75
2019-06-07T11:09:26.299Z,205.28
2019-06-07T11:10:26.235Z,139.57
2019-06-07T11:11:26.273Z,128.63
2019-06-07T11:14:26.282Z,114.26
2019-06-07T11:15:26.326Z,108.14
2019-06-07T11:16:26.251Z,123.37
2019-06-07T11:17:26.299Z,90.26
2019-06-07T11:20:26.292Z,114.32
2019-06-07T11:21:26.257Z,118.95
2019-06-07T11:22:26.250Z,63.10
2019-06-07T11:23:26.263Z,73.01
2019-06-07T11:26:26.263Z,118.00
2019-06-07T11:27:26.457Z,106.56
2019-06-07T11:28:26.268Z,91.64
2019-06-07T11:29:26.237Z,109.87
2019-06-07T11:32:26.300Z,147.48
2019-06-07T11:33:26.329Z,195.39
2019-06-07T11:34:26.265Z,114.32
2019-06-07T11:35:26.315Z,109.25
2019-06-07T11:38:26.271Z,122.85
2019-06-07T11:39:26.345Z,116.94
2019-06-07T11:40:34.386Z,350.34
2019-06-07T11:41:26.272Z,294.95
2019-06-07T11:44:26.329Z,32.18
2019-06-07T11:45:26.363Z,259.57
2019-06-07T11:46:26.273Z,255.41
2019-06-07T11:47:26.294Z,106.79
2019-06-07T11:50:26.288Z,11.68
2019-06-07T11:51:26.272Z,202.08
2019-06-07T11:52:26.289Z,144.22
2019-06-07T11:53:26.295Z,109.05
2019-06-07T11:56:26.294Z,268.16
2019-06-07T11:57:26.291Z,167.84
2019-06-07T11:58:26.305Z,175.32
2019-06-07T11:59:26.283Z,200.89
2019-06-07T12:02:26.338Z,93.26
2019-06-07T12:03:26.361Z,105.94
2019-06-07T12:04:34.514Z,107.24
2019-06-07T12:05:26.309Z,99.40
2019-06-07T12:08:26.340Z,163.34
2019-06-07T12:09:28.108Z,132.56
2019-06-07T12:10:26.315Z,148.42
2019-06-07T12:11:26.355Z,103.16
2019-06-07T12:14:26.355Z,100.66
2019-06-07T12:15:26.374Z,106.84
2019-06-07T12:16:26.317Z,110.73
2019-06-07T12:17:26.363Z,98.21
2019-06-07T12:20:26.313Z,71.24
2019-06-07T12:21:26.343Z,98.61
2019-06-07T12:22:26.328Z,44.86
2019-06-07T12:23:26.368Z,115.02
2019-06-07T12:26:26.369Z,329.22
2019-06-07T12:27:26.390Z,153.25
2019-06-07T12:28:26.364Z,166.78
2019-06-07T12:29:26.329Z,250.95
2019-06-07T12:32:26.386Z,212.12
2019-06-07T12:33:26.388Z,9.01
2019-06-07T12:34:26.346Z,110.86
2019-06-07T12:35:26.381Z,82.50
2019-06-07T12:38:26.345Z,149.46
2019-06-07T12:39:26.421Z,131.01
2019-06-07T12:40:31.854Z,114.52
2019-06-07T12:41:26.356Z,107.35
2019-06-07T12:44:26.391Z,143.98
2019-06-07T12:45:43.627Z,102.62
2019-06-07T12:46:28.505Z,90.00
2019-06-07T12:47:26.386Z,77.83
2019-06-07T12:50:41.624Z,45.00
2019-06-07T12:51:26.364Z,45.00
2019-06-07T12:52:26.373Z,51.89
2019-06-07T12:53:28.108Z,126.33
2019-06-07T12:56:26.404Z,103.66
2019-06-07T12:57:26.366Z,323.80
2019-06-07T12:58:34.707Z,91.24
2019-06-07T12:59:26.395Z,105.67
2019-06-07T13:02:26.382Z,95.28
2019-06-07T13:03:26.399Z,111.54
2019-06-07T13:04:27.766Z,95.80
2019-06-07T13:05:27.898Z,109.24
2019-06-07T13:08:26.416Z,96.48
2019-06-07T13:09:26.398Z,105.96
2019-06-07T13:10:26.411Z,28.11
2019-06-07T13:11:29.513Z,61.65
2019-06-07T13:14:26.473Z,126.68
2019-06-07T13:15:26.398Z,138.44
2019-06-07T13:16:26.400Z,117.47
2019-06-07T13:17:26.431Z,103.31
2019-06-07T13:20:26.380Z,135.65
2019-06-07T13:21:26.400Z,115.57
2019-06-07T13:22:26.393Z,188.64
2019-06-07T13:23:26.392Z,195.00
2019-06-07T13:26:26.395Z,134.39
2019-06-07T13:27:26.431Z,352.38
2019-06-07T13:28:26.439Z,345.10
2019-06-07T13:29:29.603Z,265.50
2019-06-07T13:32:26.428Z,93.78
2019-06-07T13:33:29.795Z,102.23
2019-06-07T13:34:26.418Z,98.05
2019-06-07T13:35:29.416Z,98.34
2019-06-07T13:38:26.447Z,106.82
2019-06-07T13:39:29.290Z,47.63
2019-06-07T13:40:26.437Z,148.01
2019-06-07T13:41:36.845Z,91.74
2019-06-07T13:44:26.446Z,146.59
2019-06-07T13:45:26.442Z,120.75
2019-06-07T13:46:27.163Z,122.10
2019-06-07T13:47:27.494Z,249.87
2019-06-07T13:50:26.431Z,116.61
2019-06-07T13:51:27.984Z,101.58
2019-06-07T13:52:26.431Z,93.35
2019-06-07T13:53:26.479Z,94.62
2019-06-07T13:56:26.485Z,99.25
2019-06-07T13:57:26.507Z,96.48
2019-06-07T13:58:26.525Z,86.93
2019-06-07T13:59:26.538Z,102.32
2019-06-07T14:02:27.560Z,114.63
2019-06-07T14:03:28.668Z,209.03
2019-06-07T14:04:27.046Z,124.98
2019-06-07T14:05:27.279Z,227.68
2019-06-07T14:08:27.285Z,192.38
2019-06-07T14:09:27.600Z,234.13
2019-06-07T14:10:27.543Z,255.30
2019-06-07T14:11:27.765Z,148.80
2019-06-07T14:12:27.734Z,151.20
2019-06-07T14:14:27.462Z,104.74
2019-06-07T14:15:26.563Z,135.74
2019-06-07T14:16:26.481Z,142.79
2019-06-07T14:17:28.099Z,242.85
2019-06-07T14:18:26.526Z,286.33
2019-06-07T14:20:30.948Z,0.00
2019-06-07T14:21:26.725Z,7.02
2019-06-07T14:22:26.844Z,83.24
2019-06-07T14:23:42.405Z,116.10
2019-06-07T14:24:27.058Z,138.06
2019-06-07T14:26:27.311Z,117.26
2019-06-07T14:27:27.587Z,259.43
2019-06-07T14:28:28.558Z,272.96
2019-06-07T14:29:27.767Z,0.21
2019-06-07T14:30:28.247Z,69.93
2019-06-07T14:32:26.641Z,77.96
2019-06-07T14:33:28.228Z,168.67
2019-06-07T14:34:26.484Z,136.67
2019-06-07T14:35:26.752Z,145.49
2019-06-07T14:36:26.984Z,103.30
2019-06-07T14:38:27.333Z,101.50
2019-06-07T14:39:27.121Z,102.03
2019-06-07T14:40:27.956Z,93.87
2019-06-07T14:41:27.183Z,316.76
2019-06-07T14:42:27.097Z,92.99
2019-06-07T14:44:27.691Z,125.64
2019-06-07T14:45:27.719Z,140.90
2019-06-07T14:46:26.513Z,140.95
2019-06-07T14:47:27.853Z,118.31
2019-06-07T14:48:27.890Z,90.26
2019-06-07T14:50:26.515Z,95.02
2019-06-07T14:51:26.575Z,103.40
2019-06-07T14:52:26.523Z,139.11
2019-06-07T14:53:26.691Z,104.72
2019-06-07T14:54:27.426Z,115.81
2019-06-07T14:56:27.024Z,127.08
2019-06-07T14:57:26.938Z,91.80
2019-06-07T14:58:27.097Z,108.69
2019-06-07T14:59:26.562Z,128.55
2019-06-07T15:00:26.533Z,157.42
2019-06-07T15:02:26.562Z,90.00
2019-06-07T15:03:26.622Z,304.29
2019-06-07T15:04:26.549Z,184.51
2019-06-07T15:05:26.684Z,121.39
2019-06-07T15:08:26.603Z,130.28
2019-06-07T15:09:26.902Z,131.22
2019-06-07T15:10:26.751Z,145.26
2019-06-07T15:11:26.877Z,118.27
2019-06-07T15:14:27.319Z,90.00
2019-06-07T15:15:26.562Z,15.43
2019-06-07T15:16:27.386Z,141.54
2019-06-07T15:17:26.556Z,102.62
2019-06-07T15:20:27.781Z,110.00
2019-06-07T15:21:26.738Z,123.63